Time;durP1;ratioP1;P1;durP2;ratioP2;P2;SDS_P1;SDS_P2;PMS_P1;PMS_P2;Temp;Humidity;BMP_temperature;BMP_pressure;BME280_temperature;BME280_humidity;BME280_pressure;Samples;Min_cycle;Max_cycle;Signal;HPM_P1;HPM_P2
2022/08/19 00:00:14;;;;;;;;;;;;;;;27.44;62.19;100834.13;5074299;28;20021;-82
2022/08/19 00:02:41;;;;;;;13.93;12.52;;;;;;;27.39;62.39;100832.38;5073515;28;20007;-82
2022/08/19 00:05:10;;;;;;;15.32;12.68;;;;;;;27.40;62.18;100838.63;5075180;28;20062;-84
2022/08/19 00:07:37;;;;;;;15.30;12.75;;;;;;;27.37;61.95;100836.00;5073712;28;20085;-83
2022/08/19 00:10:07;;;;;;;17.13;12.90;;;;;;;27.40;62.12;100838.63;5072924;28;20020;-82
2022/08/19 00:12:33;;;;;;;14.02;12.60;;;;;;;27.36;62.10;100828.84;5074834;28;20024;-82
2022/08/19 00:14:59;;;;;;;13.85;12.30;;;;;;;27.32;61.87;100829.81;5074361;28;20070;-81
2022/08/19 00:17:25;;;;;;;16.63;12.68;;;;;;;27.39;62.23;100847.59;5073427;28;20111;-81
2022/08/19 00:19:51;;;;;;;13.40;12.02;;;;;;;27.17;61.77;100814.78;5074692;28;20026;-85
2022/08/19 00:22:17;;;;;;;16.50;12.98;;;;;;;27.38;61.93;100845.81;5074034;28;20805;-83
2022/08/19 00:24:46;;;;;;;14.77;13.15;;;;;;;26.79;62.11;100744.72;5056523;28;20028;-82
2022/08/19 00:27:12;;;;;;;13.88;12.38;;;;;;;27.27;61.98;100820.94;5072956;28;20028;-82
2022/08/19 00:29:38;;;;;;;14.32;12.63;;;;;;;27.25;61.91;100823.66;5074209;28;20101;-83
2022/08/19 00:32:05;;;;;;;15.25;12.75;;;;;;;27.31;61.85;100836.97;5073932;28;20502;-83
2022/08/19 00:34:30;;;;;;;15.32;12.63;;;;;;;27.36;61.88;100850.31;5079910;28;20035;-83
2022/08/19 00:36:57;;;;;;;14.23;12.00;;;;;;;27.36;61.55;100842.25;5072499;28;20032;-82
2022/08/19 00:39:23;;;;;;;15.07;12.57;;;;;;;27.36;61.75;100836.91;5081137;28;20089;-83
2022/08/19 00:41:50;;;;;;;13.77;12.25;;;;;;;27.35;61.55;100846.75;5072467;28;20036;-83
2022/08/19 00:44:23;;;;;;;13.90;12.50;;;;;;;27.35;61.72;100848.56;5072160;28;20107;-82
2022/08/19 00:46:51;;;;;;;15.02;12.85;;;;;;;27.34;61.87;100844.97;5075336;28;20025;-81
2022/08/19 00:49:25;;;;;;;13.80;12.30;;;;;;;27.35;61.68;100848.56;5088021;28;20032;-83
2022/08/19 00:51:57;;;;;;;15.75;13.02;;;;;;;27.29;61.91;100835.22;5073114;28;20107;-83
2022/08/19 00:54:24;;;;;;;15.00;12.40;;;;;;;27.30;61.67;100840.53;5070141;28;20074;-83
2022/08/19 00:56:50;;;;;;;15.73;12.95;;;;;;;27.32;61.47;100844.09;5072838;28;20490;-83
2022/08/19 00:59:18;;;;;;;14.65;12.70;;;;;;;27.26;61.82;100836.13;5074069;28;20016;-82
2022/08/19 01:01:44;;;;;;;13.70;12.25;;;;;;;27.30;61.68;100842.34;5072924;28;20028;-82
2022/08/19 01:04:10;;;;;;;14.23;12.18;;;;;;;27.31;61.36;100850.38;5089342;28;20474;-83
2022/08/19 01:06:37;;;;;;;15.00;13.27;;;;;;;27.30;61.50;100853.94;5073741;28;20048;-82
2022/08/19 01:09:03;;;;;;;15.35;13.07;;;;;;;27.28;61.78;100855.75;5070960;28;20042;-82
2022/08/19 01:11:31;;;;;;;15.23;13.30;;;;;;;27.24;61.64;100845.09;5073565;28;20027;-82
2022/08/19 01:13:58;;;;;;;14.35;12.68;;;;;;;27.17;61.39;100826.38;5061940;28;20022;-81
2022/08/19 01:16:25;;;;;;;15.30;12.80;;;;;;;27.29;61.78;100848.63;5073318;28;20082;-80
2022/08/19 01:18:51;;;;;;;13.93;12.43;;;;;;;27.26;61.37;100844.16;5073338;28;20025;-81
2022/08/19 01:21:22;;;;;;;17.63;12.85;;;;;;;27.27;61.49;100851.31;5072156;28;20044;-83
2022/08/19 01:23:48;;;;;;;13.80;12.40;;;;;;;27.26;61.56;100849.53;5073033;28;20028;-83
2022/08/19 01:26:21;;;;;;;14.13;12.65;;;;;;;27.25;61.77;100841.53;5072793;28;20402;-82
2022/08/19 01:28:50;;;;;;;13.98;12.48;;;;;;;27.18;61.53;100833.53;5072483;28;20547;-83
2022/08/19 01:31:22;;;;;;;15.63;12.75;;;;;;;27.01;61.84;100815.00;5074503;28;20035;-82
2022/08/19 01:33:49;;;;;;;15.70;13.25;;;;;;;27.25;61.61;100846.91;5071859;28;20044;-83
2022/08/19 01:36:23;;;;;;;13.82;12.43;;;;;;;27.15;61.35;100840.72;5071424;28;20025;-82
2022/08/19 01:38:49;;;;;;;14.48;12.27;;;;;;;27.15;61.13;100838.94;5062698;28;20093;-83
2022/08/19 01:41:16;;;;;;;13.82;11.93;;;;;;;27.20;60.67;100847.81;5071556;28;20454;-82
2022/08/19 01:43:41;;;;;;;14.07;12.55;;;;;;;27.07;60.63;100829.22;5073481;28;20024;-84
2022/08/19 01:46:07;;;;;;;13.63;12.10;;;;;;;27.17;60.82;100847.84;5073789;28;20020;-82
2022/08/19 01:48:38;;;;;;;12.80;11.45;;;;;;;27.10;60.83;100838.13;5079783;28;20509;-83
2022/08/19 01:51:04;;;;;;;15.77;12.93;;;;;;;27.13;61.51;100840.75;5076275;28;20047;-81
2022/08/19 01:53:30;;;;;;;14.93;13.32;;;;;;;27.13;61.34;100829.13;5071850;28;20167;-81
2022/08/19 01:55:55;;;;;;;;;;;;;;;27.25;61.18;100850.47;5080378;28;20587;-84
2022/08/19 01:58:24;;;;;;;17.67;13.38;;;;;;;27.09;61.19;100832.75;5074541;28;19965;-81
2022/08/19 02:00:50;;;;;;;14.70;13.10;;;;;;;27.10;61.08;100835.44;5074595;28;20028;-82
2022/08/19 02:03:34;;;;;;;;;;;;;;;27.21;61.46;100844.22;5085908;28;20035;-82
2022/08/19 02:06:02;;;;;;;13.60;12.20;;;;;;;27.17;61.46;100847.84;5073014;28;19919;-82
2022/08/19 02:08:29;;;;;;;14.55;11.75;;;;;;;27.18;61.59;100855.00;5081054;28;20035;-83
2022/08/19 02:10:55;;;;;;;15.85;13.27;;;;;;;27.16;61.72;100850.56;5061716;28;20029;-82
2022/08/19 02:13:21;;;;;;;14.35;12.77;;;;;;;27.01;61.72;100827.53;5072868;28;20469;-82
2022/08/19 02:15:47;;;;;;;;;;;;;;;27.17;61.31;100853.19;5072365;28;20550;-82
2022/08/19 02:18:13;;;;;;;14.00;12.50;;;;;;;27.01;61.54;100827.53;5079899;28;20325;-81
2022/08/19 02:20:39;;;;;;;15.07;13.02;;;;;;;26.86;61.59;100804.50;5073167;28;20082;-82
2022/08/19 02:23:06;;;;;;;13.38;12.00;;;;;;;27.12;61.45;100847.03;5070127;28;20020;-81
2022/08/19 02:25:32;;;;;;;14.40;12.90;;;;;;;27.11;61.43;100849.72;5075279;28;20489;-81
2022/08/19 02:27:57;;;;;;;;;;;;;;;27.14;61.26;100845.22;5072364;28;20096;-81
2022/08/19 02:30:24;;;;;;;14.10;12.30;;;;;;;27.12;61.58;100847.03;5071270;28;19919;-81
2022/08/19 02:32:51;;;;;;;13.63;12.23;;;;;;;27.09;61.29;100841.69;5071542;28;20185;-82
2022/08/19 02:35:17;;;;;;;15.93;12.63;;;;;;;27.04;61.33;100846.22;5074716;28;20036;-82
2022/08/19 02:40:28;;;;;;;15.10;12.90;;;;;;;27.10;61.36;100847.97;5078553;28;20042;-80
2022/08/19 02:42:54;;;;;;;15.63;13.15;;;;;;;27.09;61.16;100848.84;5080669;28;20418;-81
2022/08/19 02:45:20;;;;;;;;;;;;;;;27.14;61.20;100849.69;5075604;28;20020;-81
2022/08/19 02:47:46;;;;;;;15.43;13.02;;;;;;;27.07;61.18;100847.97;5077009;28;19912;-83
2022/08/19 02:50:12;;;;;;;;;;;;;;;27.13;61.07;100855.94;5084160;28;20036;-82
2022/08/19 02:52:38;;;;;;;15.18;13.25;;;;;;;27.08;61.32;100844.41;5059581;28;19919;-81
2022/08/19 02:55:05;;;;;;;14.05;12.35;;;;;;;27.07;61.65;100854.22;5071191;28;20032;-82
2022/08/19 02:57:34;;;;;;;14.48;12.55;;;;;;;27.00;61.34;100839.13;5068784;28;20500;-82
2022/08/19 03:00:01;;;;;;;14.48;12.65;;;;;;;27.00;61.48;100845.38;5067013;28;20025;-81
2022/08/19 03:02:27;;;;;;;14.25;12.75;;;;;;;26.80;61.11;100807.25;5079350;28;20075;-82
2022/08/19 03:04:52;;;;;;;;;;;;;;;27.09;60.85;100844.38;5076385;28;20021;-82
2022/08/19 03:07:18;;;;;;;14.30;12.65;;;;;;;26.98;61.37;100832.91;5079832;28;19919;-82
2022/08/19 03:09:44;;;;;;;16.48;12.88;;;;;;;27.07;61.46;100848.84;5077637;28;20056;-83
2022/08/19 03:12:10;;;;;;;16.90;13.55;;;;;;;27.06;61.53;100851.59;5080480;28;20070;-82
2022/08/19 03:14:36;;;;;;;18.10;12.80;;;;;;;26.92;61.01;100831.19;5070974;28;20089;-82
2022/08/19 03:17:03;;;;;;;14.30;12.40;;;;;;;27.04;61.18;100850.72;5073877;28;20068;-82
2022/08/19 03:19:28;;;;;;;16.13;12.65;;;;;;;27.01;61.12;100843.59;5077366;28;20063;-82
2022/08/19 03:21:55;;;;;;;;;;;;;;;27.07;60.81;100854.22;5074897;28;20528;-82
2022/08/19 03:24:20;;;;;;;18.30;13.17;;;;;;;27.02;61.25;100843.56;5075952;28;19913;-82
2022/08/19 03:26:47;;;;;;;;;;;;;;;27.05;61.07;100844.44;5073411;28;20307;-82
2022/08/19 03:29:13;;;;;;;13.75;12.35;;;;;;;27.02;61.36;100854.28;5077808;28;19916;-82
2022/08/19 03:31:42;;;;;;;14.95;12.65;;;;;;;27.02;61.28;100853.41;5070776;28;20032;-83
2022/08/19 03:34:11;;;;;;;13.57;12.15;;;;;;;26.93;61.21;100840.13;5082097;28;20131;-83
2022/08/19 03:36:36;;;;;;;15.48;12.50;;;;;;;26.97;60.88;100856.16;5081717;28;20043;-83
2022/08/19 03:39:03;;;;;;;;;;;;;;;27.01;61.13;100860.56;5083723;28;20036;-82
2022/08/19 03:41:40;;;;;;;13.55;12.15;;;;;;;27.00;61.26;100860.56;5070595;28;19969;-81
2022/08/19 03:44:08;;;;;;;13.57;12.07;;;;;;;26.90;61.09;100848.19;5071038;28;20123;-81
2022/08/19 03:46:35;;;;;;;14.90;13.07;;;;;;;26.95;60.99;100871.34;5079432;28;20032;-81
2022/08/19 03:49:06;;;;;;;14.05;12.55;;;;;;;26.93;61.23;100867.81;5077649;28;20025;-81
2022/08/19 03:51:35;;;;;;;14.25;12.38;;;;;;;26.97;61.09;100874.91;5083903;28;20028;-82
2022/08/19 03:54:03;;;;;;;14.75;12.25;;;;;;;26.93;60.87;100867.81;5085136;28;20032;-80
2022/08/19 03:56:29;;;;;;;14.32;12.80;;;;;;;26.98;60.92;100879.34;5071934;28;20153;-83
2022/08/19 03:58:56;;;;;;;14.02;12.52;;;;;;;26.96;61.09;100878.47;5069877;28;20033;-82
2022/08/19 04:01:26;;;;;;;14.63;12.52;;;;;;;26.96;60.69;100883.84;5069179;28;20032;-82
2022/08/19 04:03:52;;;;;;;15.02;13.15;;;;;;;26.84;60.88;100867.03;5076775;28;20036;-82
2022/08/19 04:06:22;;;;;;;13.23;11.85;;;;;;;26.95;61.27;100878.53;5071362;28;20036;-81
2022/08/19 04:08:50;;;;;;;15.02;12.23;;;;;;;26.96;61.22;100880.28;5069184;28;20036;-81
2022/08/19 04:11:20;;;;;;;13.52;11.93;;;;;;;26.91;61.37;100880.34;5086313;28;20028;-81
2022/08/19 04:13:46;;;;;;;14.00;12.20;;;;;;;26.87;60.95;100883.97;5081190;28;20040;-81
2022/08/19 04:16:12;;;;;;;;;;;;;;;26.96;60.97;100896.34;5078706;28;20029;-82
2022/08/19 04:18:39;;;;;;;16.15;12.98;;;;;;;26.91;60.74;100900.91;5080049;28;19968;-83
2022/08/19 04:21:05;;;;;;;13.85;12.43;;;;;;;26.93;60.92;100899.97;5076566;28;20028;-85
2022/08/19 04:23:31;;;;;;;14.93;11.95;;;;;;;26.92;61.17;100902.66;5081893;28;20032;-82
2022/08/19 04:25:57;;;;;;;;;;;;;;;26.93;60.80;100897.28;5073022;28;20020;-84
2022/08/19 04:28:23;;;;;;;14.55;12.32;;;;;;;26.91;61.07;100901.78;5084280;28;20065;-83
2022/08/19 04:30:51;;;;;;;13.93;12.00;;;;;;;26.91;60.81;100912.50;5071739;28;20024;-82
2022/08/19 04:33:19;;;;;;;14.10;12.57;;;;;;;26.92;60.89;100910.69;5071327;28;20036;-82
2022/08/19 04:35:48;;;;;;;13.88;12.45;;;;;;;26.69;61.05;100877.03;5069378;28;20109;-84
2022/08/19 04:38:14;;;;;;;13.40;11.93;;;;;;;26.91;60.75;100906.25;5058177;28;20028;-82
2022/08/19 04:43:31;;;;;;;14.38;11.95;;;;;;;26.91;61.16;100911.63;5070658;28;20040;-82
2022/08/19 04:45:57;;;;;;;14.13;12.35;;;;;;;26.69;60.99;100876.13;5071794;28;20055;-83
2022/08/19 04:48:26;;;;;;;;;;;;;;;26.92;60.71;100910.69;5071148;28;20063;-81
2022/08/19 04:50:59;;;;;;;13.60;11.77;;;;;;;26.90;61.12;100916.09;5077258;28;19996;-81
2022/08/19 04:53:28;;;;;;;13.63;12.23;;;;;;;26.81;60.79;100910.81;5089843;28;20024;-83
2022/08/19 04:55:58;;;;;;;13.65;12.25;;;;;;;26.83;60.85;100916.16;5078075;28;20024;-82
2022/08/19 04:58:26;;;;;;;15.50;12.63;;;;;;;26.82;61.18;100917.97;5084479;28;20035;-83
2022/08/19 05:00:53;;;;;;;14.70;12.32;;;;;;;26.83;60.89;100913.50;5070574;28;20067;-82
2022/08/19 05:03:19;;;;;;;13.85;12.13;;;;;;;26.81;60.90;100916.19;5083099;28;20032;-84
2022/08/19 05:05:45;;;;;;;;;;;;;;;26.85;61.24;100922.41;5079766;28;20093;-80
2022/08/19 05:08:11;;;;;;;16.33;12.23;;;;;;;26.80;60.84;100909.94;5070234;28;19912;-81
2022/08/19 05:10:38;;;;;;;15.93;12.10;;;;;;;26.82;60.93;100912.63;5086450;28;20134;-82
2022/08/19 05:13:04;;;;;;;14.38;12.48;;;;;;;26.81;61.56;100921.53;5073666;28;20029;-80
2022/08/19 05:15:30;;;;;;;;;;;;;;;26.83;60.90;100919.72;5073597;28;20036;-81
2022/08/19 05:23:23;;;;;;;14.40;12.30;;;;;;;26.78;61.21;100919.78;5085123;28;20079;-81
2022/08/19 05:25:50;;;;;;;;;;;;;;;26.83;61.01;100918.84;5066623;28;20056;-82
2022/08/19 05:28:16;;;;;;;12.90;11.43;;;;;;;26.64;61.18;100888.69;5073606;28;19912;-80
2022/08/19 05:30:43;;;;;;;;;;;;;;;26.86;60.97;100921.47;5064060;28;20033;-82
2022/08/19 05:33:09;;;;;;;;;;;;;;;26.83;61.17;100916.16;5072760;28;19969;-82
2022/08/19 05:35:37;;;;;;;14.27;12.43;;;;;;;26.80;61.59;100911.75;5067184;28;19917;-83
2022/08/19 05:38:03;;;;;;;14.50;12.02;;;;;;;26.80;61.59;100914.41;5071570;28;20024;-82
2022/08/19 05:40:29;;;;;;;13.43;12.02;;;;;;;26.77;60.95;100919.78;5070438;28;20418;-82
2022/08/19 05:42:54;;;;;;;;;;;;;;;26.82;61.39;100909.94;5070847;28;20025;-83
2022/08/19 05:45:21;;;;;;;13.93;12.07;;;;;;;26.81;61.41;100914.38;5072569;28;19919;-82
2022/08/19 05:47:48;;;;;;;13.55;12.15;;;;;;;26.81;61.42;100911.69;5080573;28;20029;-82
2022/08/19 05:50:13;;;;;;;13.85;12.40;;;;;;;26.81;61.45;100900.97;5071550;28;20026;-82
2022/08/19 05:52:39;;;;;;;;;;;;;;;26.84;61.39;100910.81;5070686;28;20483;-82
2022/08/19 05:55:05;;;;;;;13.07;11.68;;;;;;;26.79;61.57;100908.16;5077210;28;19962;-82
2022/08/19 05:57:31;;;;;;;12.23;10.95;;;;;;;26.78;61.12;100893.00;5051125;28;20071;-82
2022/08/19 05:59:57;;;;;;;;;;;;;;;26.86;60.98;100887.56;5098940;28;21514;-82
2022/08/19 06:02:26;;;;;;;16.05;12.13;;;;;;;26.70;60.92;100880.59;5065690;28;19920;-84
2022/08/19 06:04:52;;;;;;;13.93;11.25;;;;;;;26.80;61.54;100901.91;5071857;28;20060;-83
2022/08/19 06:07:19;;;;;;;;;;;;;;;26.85;61.24;100900.97;5072419;28;20056;-82
2022/08/19 06:09:45;;;;;;;14.02;11.40;;;;;;;26.63;61.19;100870.81;5064906;28;20128;-82
2022/08/19 06:12:11;;;;;;;;;;;;;;;26.86;61.33;100905.41;5069655;28;20032;-81
2022/08/19 06:14:36;;;;;;;12.98;11.35;;;;;;;26.68;61.21;100869.88;5083217;28;20368;-84
2022/08/19 06:17:03;;;;;;;13.40;12.00;;;;;;;26.73;61.92;100878.78;5074479;28;20028;-81
2022/08/19 06:19:30;;;;;;;12.07;10.88;;;;;;;26.68;61.89;100885.94;5068980;28;20031;-81
2022/08/19 06:21:57;;;;;;;15.00;11.85;;;;;;;26.76;61.23;100886.75;5071780;28;20641;-82
2022/08/19 06:24:26;;;;;;;13.55;12.10;;;;;;;26.78;61.52;100892.09;5078534;28;20562;-82
2022/08/19 06:26:53;;;;;;;13.00;11.65;;;;;;;26.72;62.02;100887.69;5077254;28;20039;-81
2022/08/19 06:29:24;;;;;;;13.55;12.07;;;;;;;26.71;61.94;100888.63;5085100;28;20052;-82
2022/08/19 06:31:52;;;;;;;12.73;11.30;;;;;;;26.75;61.86;100884.09;5067597;28;20044;-82
2022/08/19 06:34:18;;;;;;;13.68;11.30;;;;;;;26.63;61.98;100865.47;5071266;28;20526;-81
2022/08/19 06:36:47;;;;;;;13.52;11.73;;;;;;;26.71;61.92;100864.50;5079318;28;20032;-83
2022/08/19 06:39:20;;;;;;;13.73;11.82;;;;;;;26.64;62.13;100851.19;5075269;28;20031;-82
2022/08/19 06:41:49;;;;;;;13.00;10.98;;;;;;;26.71;62.24;100877.91;5059412;28;20083;-82
2022/08/19 06:44:15;;;;;;;13.45;11.52;;;;;;;26.66;62.33;100869.00;5069383;28;20024;-83
2022/08/19 06:46:42;;;;;;;11.95;10.70;;;;;;;26.70;61.91;100889.50;5093115;28;20024;-82
2022/08/19 06:49:09;;;;;;;14.02;11.57;;;;;;;26.66;62.41;100885.06;5082367;28;20092;-82
2022/08/19 06:51:35;;;;;;;12.55;10.88;;;;;;;26.60;62.25;100861.91;5070105;28;20032;-82
2022/08/19 06:54:01;;;;;;;;;;;;;;;26.69;61.44;100889.50;5085872;28;20055;-83
2022/08/19 06:56:38;;;;;;;12.60;11.25;;;;;;;26.54;61.37;100863.75;5078632;28;19916;-83
2022/08/19 06:59:12;;;;;;;12.27;11.07;;;;;;;26.64;61.76;100876.16;5075281;28;20028;-84
2022/08/19 07:01:41;;;;;;;12.43;11.13;;;;;;;26.55;61.11;100871.75;5068484;28;20024;-83
2022/08/19 07:04:08;;;;;;;12.43;10.70;;;;;;;26.69;61.15;100887.75;5070643;28;20028;-82
2022/08/19 07:06:34;;;;;;;12.52;10.40;;;;;;;26.68;61.53;100885.06;5074818;28;20115;-83
2022/08/19 07:09:00;;;;;;;12.02;10.80;;;;;;;26.64;61.26;100894.03;5073734;28;20034;-84
2022/08/19 07:11:26;;;;;;;;;;;;;;;26.64;61.57;100891.38;5063402;28;20063;-83
2022/08/19 07:13:52;;;;;;;11.68;10.45;;;;;;;26.64;61.40;100886.88;5070417;28;19931;-83
2022/08/19 07:16:20;;;;;;;12.65;11.05;;;;;;;26.61;61.36;100876.22;5070494;28;20379;-84
2022/08/19 07:18:49;;;;;;;12.65;11.27;;;;;;;26.59;61.13;100875.34;5069827;28;20021;-84
2022/08/19 07:21:27;;;;;;;12.60;11.30;;;;;;;26.41;61.49;100837.06;5070567;28;20046;-84
2022/08/19 07:23:54;;;;;;;14.98;11.35;;;;;;;26.56;61.11;100860.19;5069914;28;20031;-83
2022/08/19 07:26:29;;;;;;;11.77;10.57;;;;;;;26.40;61.23;100840.69;5070552;28;20077;-83
2022/08/19 07:28:57;;;;;;;12.82;10.80;;;;;;;26.66;61.51;100882.41;5071577;28;20494;-83
2022/08/19 07:31:25;;;;;;;14.32;11.25;;;;;;;26.63;61.11;100877.09;5070642;28;20509;-82
2022/08/19 07:33:55;;;;;;;11.82;10.55;;;;;;;26.65;61.12;100877.97;5070868;28;20042;-85
2022/08/19 07:36:23;;;;;;;12.43;11.10;;;;;;;26.65;61.10;100875.28;5073368;28;20103;-83
2022/08/19 07:38:51;;;;;;;13.02;10.75;;;;;;;26.68;61.34;100883.28;5055985;28;20113;-83
2022/08/19 07:41:23;;;;;;;14.85;10.85;;;;;;;26.66;60.89;100863.66;5070219;28;20024;-84
2022/08/19 07:43:49;;;;;;;12.38;10.52;;;;;;;26.71;60.96;100879.66;5070137;28;20440;-83
2022/08/19 07:46:28;;;;;;;13.75;11.43;;;;;;;26.72;61.07;100878.78;5069845;28;20020;-83
2022/08/19 07:48:53;;;;;;;12.23;10.23;;;;;;;26.70;60.88;100864.50;5070578;28;20162;-83
2022/08/19 07:51:20;;;;;;;;;;;;;;;26.71;61.30;100861.81;5069833;28;20050;-83
2022/08/19 07:53:47;;;;;;;13.05;10.82;;;;;;;26.55;61.08;100850.34;5069463;28;19969;-84
2022/08/19 07:56:15;;;;;;;16.10;11.93;;;;;;;26.50;61.34;100848.59;5069040;28;20035;-82
2022/08/19 07:58:43;;;;;;;13.05;11.10;;;;;;;26.68;61.08;100871.69;5066157;28;20173;-84
2022/08/19 08:01:12;;;;;;;14.15;11.35;;;;;;;26.70;60.88;100867.19;5073739;28;20119;-82
2022/08/19 08:09:20;;;;;;;19.17;12.57;;;;;;;26.69;61.31;100852.00;5065311;28;20040;-83
2022/08/19 08:11:58;;;;;;;19.58;12.40;;;;;;;26.70;61.34;100861.84;5065005;28;20039;-84
2022/08/19 08:14:28;;;;;;;17.13;12.35;;;;;;;26.68;61.30;100850.25;5077378;28;20064;-84
2022/08/19 08:16:54;;;;;;;15.45;11.07;;;;;;;26.52;61.06;100817.34;5069800;28;20431;-84
2022/08/19 08:19:23;;;;;;;15.10;11.43;;;;;;;26.72;61.01;100847.50;5067814;28;20028;-81
2022/08/19 08:21:49;;;;;;;14.57;11.30;;;;;;;26.72;61.28;100849.31;5049821;28;20518;-82
2022/08/19 08:24:15;;;;;;;14.88;11.32;;;;;;;26.74;61.30;100850.19;5065939;28;20031;-83
2022/08/19 08:26:43;;;;;;;14.60;10.82;;;;;;;26.76;61.11;100854.59;5073415;28;20485;-81
2022/08/19 08:29:12;;;;;;;12.70;11.38;;;;;;;26.77;60.82;100852.81;5073241;28;20028;-80
2022/08/19 08:31:40;;;;;;;13.32;11.05;;;;;;;26.74;61.01;100845.69;5072815;28;20037;-82
2022/08/19 08:34:06;;;;;;;14.70;11.52;;;;;;;26.71;60.98;100840.41;5073819;28;20020;-82
2022/08/19 08:36:33;;;;;;;11.15;10.00;;;;;;;26.80;60.86;100845.63;5069913;28;20474;-82
2022/08/19 08:38:59;;;;;;;13.23;11.23;;;;;;;26.70;61.16;100832.38;5073913;28;20486;-81
2022/08/19 08:41:53;;;;;;;13.95;11.48;;;;;;;26.79;60.91;100842.97;5074164;28;20513;-84
2022/08/19 08:44:39;;;;;;;16.73;11.55;;;;;;;26.78;61.23;100851.91;5072729;28;20032;-83
2022/08/19 08:47:12;;;;;;;11.95;10.75;;;;;;;26.75;61.06;100843.91;5070140;28;20045;-84
2022/08/19 08:49:51;;;;;;;12.95;10.73;;;;;;;26.75;61.17;100842.09;5049216;28;20089;-84
2022/08/19 08:52:26;;;;;;;14.00;10.85;;;;;;;26.79;60.83;100846.53;5074629;28;20036;-82
2022/08/19 08:54:55;;;;;;;12.47;11.17;;;;;;;26.87;60.71;100853.59;5073070;28;20090;-82
2022/08/19 08:57:29;;;;;;;11.95;10.70;;;;;;;26.66;61.12;100826.16;5059668;28;20020;-83
2022/08/19 08:59:58;;;;;;;13.65;10.93;;;;;;;26.87;61.14;100862.53;5067519;28;20508;-82
2022/08/19 09:02:24;;;;;;;14.68;10.73;;;;;;;26.88;60.82;100853.59;5088558;28;20020;-83
2022/08/19 09:04:49;;;;;;;11.95;10.65;;;;;;;26.89;61.11;100858.03;5071701;28;20482;-83
2022/08/19 09:07:24;;;;;;;;;;;;;;;26.86;61.41;100858.09;5073476;28;20021;-83
2022/08/19 09:10:04;;;;;;;14.02;10.85;;;;;;;26.87;60.99;100869.69;5071068;28;19974;-85
2022/08/19 09:12:58;;;;;;;13.77;10.57;;;;;;;26.91;61.09;100863.38;5063258;28;20112;-82
2022/08/19 09:15:34;;;;;;;13.35;10.50;;;;;;;26.74;61.00;100843.03;5073683;28;20029;-81
2022/08/19 09:18:02;;;;;;;13.98;10.85;;;;;;;26.93;60.92;100859.78;5073147;28;20044;-82
2022/08/19 09:20:28;;;;;;;13.77;10.68;;;;;;;26.92;61.34;100862.47;5072100;28;20016;-82
2022/08/19 09:22:54;;;;;;;;;;;;;;;26.90;60.95;100865.19;5071020;28;20112;-82
2022/08/19 09:25:22;;;;;;;11.98;10.63;;;;;;;26.91;60.92;100861.59;5073488;28;19908;-82
2022/08/19 09:27:49;;;;;;;13.02;10.93;;;;;;;26.88;61.13;100860.72;5070644;28;20031;-81
2022/08/19 09:30:21;;;;;;;12.35;10.73;;;;;;;26.87;61.29;100851.81;5071637;28;20058;-82
2022/08/19 09:32:47;;;;;;;13.48;10.95;;;;;;;26.94;60.68;100852.59;5081461;28;20078;-81
2022/08/19 09:35:14;;;;;;;13.20;11.10;;;;;;;26.87;61.00;100857.16;5072840;28;20033;-82
2022/08/19 09:37:42;;;;;;;14.48;10.63;;;;;;;26.93;60.64;100864.25;5070330;28;20106;-82
2022/08/19 09:40:09;;;;;;;13.48;10.60;;;;;;;26.91;60.44;100860.69;5068875;28;20020;-82
2022/08/19 09:42:35;;;;;;;12.63;10.55;;;;;;;26.96;60.63;100867.75;5072292;28;20024;-81
2022/08/19 09:45:00;;;;;;;;;;;;;;;26.97;60.65;100869.56;5072506;28;20031;-80
2022/08/19 09:47:26;;;;;;;13.63;11.07;;;;;;;26.99;60.89;100867.75;5066450;28;19920;-83
2022/08/19 09:49:52;;;;;;;14.32;11.35;;;;;;;26.97;60.99;100855.28;5066700;28;20020;-82
2022/08/19 09:52:17;;;;;;;;;;;;;;;27.04;60.57;100864.13;5069657;28;20077;-83
2022/08/19 09:54:43;;;;;;;12.40;10.75;;;;;;;27.02;60.97;100869.47;5070482;28;19912;-83
2022/08/19 09:57:09;;;;;;;11.95;10.43;;;;;;;26.96;61.07;100859.72;5071332;28;20024;-88
2022/08/19 09:59:35;;;;;;;13.60;11.32;;;;;;;26.93;60.83;100849.06;5071425;28;20103;-88
2022/08/19 10:02:02;;;;;;;12.50;10.95;;;;;;;26.93;60.79;100853.53;5068842;28;20467;-86
2022/08/19 10:05:47;;;;;;;12.55;10.40;;;;;;;27.07;61.17;100878.34;5073123;28;20032;-85
2022/08/19 10:07:13;;;;;;;13.43;10.52;;;;;;;27.04;61.19;100883.75;5071066;28;20402;-86
2022/08/19 10:09:40;;;;;;;;;;;;;;;27.05;61.31;100885.56;5069862;28;20028;-85
2022/08/19 10:12:07;;;;;;;13.32;10.70;;;;;;;26.99;61.15;100875.78;5053033;28;19912;-87
2022/08/19 10:14:33;;;;;;;12.57;10.98;;;;;;;27.08;61.43;100892.66;5069780;28;20034;-88
2022/08/19 10:17:00;;;;;;;12.30;10.55;;;;;;;27.03;61.07;100884.69;5069963;28;20060;-85
2022/08/19 10:19:27;;;;;;;11.35;10.18;;;;;;;27.11;61.44;100890.81;5064242;28;20033;-85
2022/08/19 10:21:53;;;;;;;12.32;10.75;;;;;;;27.15;60.82;100887.19;5071418;28;20017;-86
2022/08/19 10:24:20;;;;;;;13.50;11.43;;;;;;;27.15;60.89;100894.34;5068696;28;20016;-85
2022/08/19 10:26:47;;;;;;;12.50;10.95;;;;;;;26.96;61.02;100856.16;5073332;28;20019;-87
2022/08/19 10:29:15;;;;;;;11.60;10.40;;;;;;;27.16;60.89;100890.78;5069270;28;20074;-87
2022/08/19 10:31:41;;;;;;;12.40;10.52;;;;;;;27.17;60.74;100895.22;5068481;28;20020;-83
2022/08/19 10:34:07;;;;;;;12.07;10.88;;;;;;;27.10;60.98;100886.38;5086938;28;20031;-84
2022/08/19 10:36:35;;;;;;;;;;;;;;;27.18;61.21;100892.53;5067289;28;20025;-83
2022/08/19 10:39:07;;;;;;;12.75;10.48;;;;;;;27.16;61.02;100888.97;5070467;28;19970;-83
2022/08/19 10:41:35;;;;;;;11.73;10.38;;;;;;;27.07;61.23;100877.47;5070537;28;20032;-84
2022/08/19 10:44:04;;;;;;;12.50;10.30;;;;;;;27.05;61.68;100882.88;5070986;28;20020;-81
2022/08/19 10:46:32;;;;;;;12.52;10.80;;;;;;;27.15;61.21;100897.03;5065080;28;20024;-81
2022/08/19 10:49:00;;;;;;;11.48;10.25;;;;;;;27.11;61.20;100890.81;5068620;28;20032;-82
2022/08/19 10:54:10;;;;;;;13.15;9.95;;;;;;;27.13;61.18;100893.47;5069946;28;20027;-81
2022/08/19 10:56:51;;;;;;;11.75;10.40;;;;;;;27.13;61.11;100899.72;5069442;28;20029;-81
2022/08/19 10:59:22;;;;;;;11.88;10.60;;;;;;;27.11;61.15;100893.47;5055320;28;20039;-81
2022/08/19 11:01:49;;;;;;;11.88;10.63;;;;;;;27.19;60.93;100901.44;5070563;28;20101;-82
2022/08/19 11:04:17;;;;;;;13.18;10.95;;;;;;;27.22;61.01;100896.09;5070426;28;20020;-81
2022/08/19 11:06:47;;;;;;;11.75;10.55;;;;;;;27.15;61.01;100892.53;5070002;28;20108;-80
2022/08/19 11:09:18;;;;;;;11.48;10.10;;;;;;;27.16;60.98;100891.66;5069255;28;20048;-80
2022/08/19 11:11:44;;;;;;;12.48;10.38;;;;;;;27.12;60.62;100887.22;5069701;28;20459;-81
2022/08/19 11:14:13;;;;;;;11.75;10.20;;;;;;;27.19;60.49;100896.97;5069779;28;20547;-81
2022/08/19 11:16:40;;;;;;;13.63;10.70;;;;;;;27.15;61.12;100887.19;5053189;28;20063;-80
2022/08/19 11:19:07;;;;;;;11.88;10.50;;;;;;;27.20;61.03;100888.03;5070086;28;20040;-82
2022/08/19 11:21:41;;;;;;;12.63;11.20;;;;;;;27.21;61.28;100889.78;5071450;28;20096;-82
2022/08/19 11:24:10;;;;;;;14.27;11.02;;;;;;;27.20;60.82;100882.66;5070861;28;20024;-81
2022/08/19 11:26:36;;;;;;;10.95;9.85;;;;;;;27.24;60.50;100882.66;5071009;28;20024;-81
2022/08/19 11:29:04;;;;;;;12.00;10.70;;;;;;;27.23;60.84;100878.22;5069550;28;20032;-82
2022/08/19 11:31:31;;;;;;;12.50;10.80;;;;;;;27.28;60.35;100885.25;5069785;28;20028;-81
2022/08/19 11:33:59;;;;;;;12.43;10.65;;;;;;;27.29;60.04;100884.38;5070778;28;20071;-81
2022/08/19 11:36:26;;;;;;;11.93;10.52;;;;;;;27.26;60.25;100878.16;5070747;28;20055;-81
2022/08/19 11:38:52;;;;;;;13.68;10.27;;;;;;;27.31;60.56;100873.63;5069373;28;20020;-81
2022/08/19 11:41:22;;;;;;;12.40;10.90;;;;;;;27.31;60.08;100869.16;5071112;28;20031;-82